sensor_id;sensor_type;location;lat;lon;timestamp;pressure;altitude;pressure_sealevel;temperature;humidity
8451;BME280;4262;50.980;13.892;2023-01-29T06:02:16;50801.59;;;-142.97;56.27
8451;BME280;4262;50.980;13.892;2023-01-29T06:04:43;50782.09;;;-142.97;55.59
8451;BME280;4262;50.980;13.892;2023-01-29T06:07:10;50756.75;;;-142.97;55.71
8451;BME280;4262;50.980;13.892;2023-01-29T06:09:37;50745.03;;;-142.97;56.44
8451;BME280;4262;50.980;13.892;2023-01-29T06:12:04;50793.78;;;-142.97;56.55
8451;BME280;4262;50.980;13.892;2023-01-29T06:14:34;50772.34;;;-142.97;56.92
8451;BME280;4262;50.980;13.892;2023-01-29T06:17:00;50801.59;;;-142.97;57.14
8451;BME280;4262;50.980;13.892;2023-01-29T06:19:29;50743.09;;;-142.97;56.78
8451;BME280;4262;50.980;13.892;2023-01-29T06:21:55;50780.13;;;-142.97;56.58
8451;BME280;4262;50.980;13.892;2023-01-29T06:24:22;50797.69;;;-142.97;56.26
8451;BME280;4262;50.980;13.892;2023-01-29T06:26:49;50791.84;;;-142.97;56.05
8451;BME280;4262;50.980;13.892;2023-01-29T06:29:16;50805.50;;;-142.97;56.67
8451;BME280;4262;50.980;13.892;2023-01-29T06:31:42;50762.59;;;-142.97;56.84
8451;BME280;4262;50.980;13.892;2023-01-29T06:34:09;50760.63;;;-142.97;57.29
8451;BME280;4262;50.980;13.892;2023-01-29T06:36:37;50762.59;;;-142.97;57.48
8451;BME280;4262;50.980;13.892;2023-01-29T06:39:06;50764.53;;;-142.97;57.53
8451;BME280;4262;50.980;13.892;2023-01-29T06:41:33;50785.97;;;-142.97;57.57
8451;BME280;4262;50.980;13.892;2023-01-29T06:44:01;50766.50;;;-142.97;57.86
8451;BME280;4262;50.980;13.892;2023-01-29T06:46:28;50801.59;;;-142.97;57.43
8451;BME280;4262;50.980;13.892;2023-01-29T06:48:57;50801.59;;;-142.97;57.40
8451;BME280;4262;50.980;13.892;2023-01-29T06:51:24;50789.88;;;-142.97;57.22
8451;BME280;4262;50.980;13.892;2023-01-29T06:53:54;50750.88;;;-142.97;57.11
8451;BME280;4262;50.980;13.892;2023-01-29T06:56:20;50799.63;;;-142.97;57.74
8451;BME280;4262;50.980;13.892;2023-01-29T06:58:47;50793.78;;;-142.97;56.58
8451;BME280;4262;50.980;13.892;2023-01-29T07:01:14;50785.97;;;-142.97;57.45
8451;BME280;4262;50.980;13.892;2023-01-29T07:03:41;50776.25;;;-142.97;56.95
8451;BME280;4262;50.980;13.892;2023-01-29T07:06:08;50747.00;;;-142.97;56.99
8451;BME280;4262;50.980;13.892;2023-01-29T07:08:36;50760.63;;;-142.97;57.33
8451;BME280;4262;50.980;13.892;2023-01-29T07:11:05;50813.28;;;-142.97;57.70
8451;BME280;4262;50.980;13.892;2023-01-29T07:13:34;50776.25;;;-142.97;58.15
8451;BME280;4262;50.980;13.892;2023-01-29T07:16:02;50760.63;;;-142.97;57.65
8451;BME280;4262;50.980;13.892;2023-01-29T07:18:30;50799.63;;;-142.97;57.51
8451;BME280;4262;50.980;13.892;2023-01-29T07:20:57;50764.53;;;-142.97;56.83
8451;BME280;4262;50.980;13.892;2023-01-29T07:23:24;50748.94;;;-142.97;57.57
8451;BME280;4262;50.980;13.892;2023-01-29T07:25:51;50770.38;;;-142.97;57.13
8451;BME280;4262;50.980;13.892;2023-01-29T07:28:19;50770.38;;;-142.97;57.82
8451;BME280;4262;50.980;13.892;2023-01-29T07:30:46;50748.94;;;-142.97;57.85
8451;BME280;4262;50.980;13.892;2023-01-29T07:33:13;50803.53;;;-142.97;56.94
8451;BME280;4262;50.980;13.892;2023-01-29T07:35:41;50780.13;;;-142.97;57.04
8451;BME280;4262;50.980;13.892;2023-01-29T07:38:09;50774.28;;;-142.97;56.83
8451;BME280;4262;50.980;13.892;2023-01-29T07:40:36;50745.03;;;-142.97;56.46
8451;BME280;4262;50.980;13.892;2023-01-29T07:43:05;50805.50;;;-142.97;56.51
8451;BME280;4262;50.980;13.892;2023-01-29T07:45:37;50756.75;;;-142.97;57.06
8451;BME280;4262;50.980;13.892;2023-01-29T07:48:06;50795.75;;;-142.97;56.87
8451;BME280;4262;50.980;13.892;2023-01-29T07:50:35;50754.78;;;-142.97;56.32
8451;BME280;4262;50.980;13.892;2023-01-29T07:53:02;50807.44;;;-142.97;55.72
8451;BME280;4262;50.980;13.892;2023-01-29T07:55:32;50787.94;;;-142.97;56.15
8451;BME280;4262;50.980;13.892;2023-01-29T07:58:00;50770.38;;;-142.97;55.90
8451;BME280;4262;50.980;13.892;2023-01-29T08:00:29;50774.28;;;-142.97;55.85
8451;BME280;4262;50.980;13.892;2023-01-29T08:03:02;50758.69;;;-142.97;55.92
8451;BME280;4262;50.980;13.892;2023-01-29T08:05:29;50768.44;;;-142.97;55.89
8451;BME280;4262;50.980;13.892;2023-01-29T08:07:57;50762.59;;;-142.97;55.25
8451;BME280;4262;50.980;13.892;2023-01-29T08:10:24;50791.84;;;-142.97;55.39
8451;BME280;4262;50.980;13.892;2023-01-29T08:12:54;50807.44;;;-142.97;54.77
8451;BME280;4262;50.980;13.892;2023-01-29T08:15:23;50809.38;;;-142.97;55.08
8451;BME280;4262;50.980;13.892;2023-01-29T08:17:52;50770.38;;;-142.97;54.36
8451;BME280;4262;50.980;13.892;2023-01-29T08:20:21;50762.59;;;-142.97;54.29
8451;BME280;4262;50.980;13.892;2023-01-29T08:22:48;50758.69;;;-142.97;53.95
8451;BME280;4262;50.980;13.892;2023-01-29T08:25:16;50784.03;;;-142.97;53.76
8451;BME280;4262;50.980;13.892;2023-01-29T08:27:43;50727.50;;;-142.97;52.69
8451;BME280;4262;50.980;13.892;2023-01-29T08:30:11;50828.88;;;-142.97;51.99
8451;BME280;4262;50.980;13.892;2023-01-29T08:32:38;50782.09;;;-142.97;51.90
8451;BME280;4262;50.980;13.892;2023-01-29T08:35:05;50760.63;;;-142.97;51.61
8451;BME280;4262;50.980;13.892;2023-01-29T08:37:33;50737.25;;;-142.97;51.91
8451;BME280;4262;50.980;13.892;2023-01-29T08:40:01;50799.63;;;-142.97;52.47
8451;BME280;4262;50.980;13.892;2023-01-29T08:42:28;50797.69;;;-142.97;52.69
8451;BME280;4262;50.980;13.892;2023-01-29T08:44:56;50778.19;;;-142.97;53.02
8451;BME280;4262;50.980;13.892;2023-01-29T08:47:23;50750.88;;;-142.97;52.28
8451;BME280;4262;50.980;13.892;2023-01-29T08:49:50;50768.44;;;-142.97;52.52
8451;BME280;4262;50.980;13.892;2023-01-29T08:52:16;50789.88;;;-142.97;53.27
8451;BME280;4262;50.980;13.892;2023-01-29T08:54:44;50770.38;;;-142.97;53.34
8451;BME280;4262;50.980;13.892;2023-01-29T08:57:11;50776.25;;;-142.97;53.10
8451;BME280;4262;50.980;13.892;2023-01-29T08:59:38;50750.88;;;-142.97;53.93
8451;BME280;4262;50.980;13.892;2023-01-29T09:02:05;50787.94;;;-142.97;54.21
8451;BME280;4262;50.980;13.892;2023-01-29T09:04:31;50811.34;;;-142.97;54.01
8451;BME280;4262;50.980;13.892;2023-01-29T09:06:58;50754.78;;;-142.97;53.05
8451;BME280;4262;50.980;13.892;2023-01-29T09:09:25;50731.38;;;-142.97;52.48
8451;BME280;4262;50.980;13.892;2023-01-29T09:11:53;50770.38;;;-142.97;52.04
8451;BME280;4262;50.980;13.892;2023-01-29T09:14:21;50764.53;;;-142.97;51.74
8451;BME280;4262;50.980;13.892;2023-01-29T09:16:48;50784.03;;;-142.97;51.75
8451;BME280;4262;50.980;13.892;2023-01-29T09:19:15;50782.09;;;-142.97;50.90
8451;BME280;4262;50.980;13.892;2023-01-29T09:21:41;50780.13;;;-142.97;50.95
8451;BME280;4262;50.980;13.892;2023-01-29T09:24:07;50811.34;;;-142.97;50.91
8451;BME280;4262;50.980;13.892;2023-01-29T09:26:35;50789.88;;;-142.97;51.01
8451;BME280;4262;50.980;13.892;2023-01-29T09:29:05;50815.22;;;-142.97;51.07
8451;BME280;4262;50.980;13.892;2023-01-29T09:31:32;50785.97;;;-142.97;50.80
8451;BME280;4262;50.980;13.892;2023-01-29T09:33:59;50811.34;;;-142.97;51.02
8451;BME280;4262;50.980;13.892;2023-01-29T09:36:26;50772.34;;;-142.97;50.48
8451;BME280;4262;50.980;13.892;2023-01-29T09:38:52;50789.88;;;-142.97;50.83
8451;BME280;4262;50.980;13.892;2023-01-29T09:41:28;50801.59;;;-142.97;51.16
8451;BME280;4262;50.980;13.892;2023-01-29T09:44:01;50784.03;;;-142.97;50.93
8451;BME280;4262;50.980;13.892;2023-01-29T09:46:34;50784.03;;;-142.97;49.63
8451;BME280;4262;50.980;13.892;2023-01-29T09:49:08;50708.00;;;-142.97;49.53
8451;BME280;4262;50.980;13.892;2023-01-29T09:51:40;50748.94;;;-142.97;49.71
8451;BME280;4262;50.980;13.892;2023-01-29T09:54:15;50797.69;;;-142.97;49.79
8451;BME280;4262;50.980;13.892;2023-01-29T09:56:44;50758.69;;;-142.97;49.09
8451;BME280;4262;50.980;13.892;2023-01-29T09:59:12;50787.94;;;-142.97;48.73
8451;BME280;4262;50.980;13.892;2023-01-29T10:01:52;50764.53;;;-142.97;49.03
8451;BME280;4262;50.980;13.892;2023-01-29T10:07:28;50795.75;;;-142.97;48.25
8451;BME280;4262;50.980;13.892;2023-01-29T10:10:12;50770.38;;;-142.97;48.30
8451;BME280;4262;50.980;13.892;2023-01-29T10:12:52;50762.59;;;-142.97;48.73
8451;BME280;4262;50.980;13.892;2023-01-29T10:15:34;50793.78;;;-142.97;48.49
8451;BME280;4262;50.980;13.892;2023-01-29T10:18:32;50760.63;;;-142.97;48.50
8451;BME280;4262;50.980;13.892;2023-01-29T10:21:13;50774.28;;;-142.97;49.18
8451;BME280;4262;50.980;13.892;2023-01-29T10:23:46;50815.22;;;-142.97;48.34
8451;BME280;4262;50.980;13.892;2023-01-29T10:26:17;50782.09;;;-142.97;48.65
8451;BME280;4262;50.980;13.892;2023-01-29T10:28:49;50799.63;;;-142.97;48.13
8451;BME280;4262;50.980;13.892;2023-01-29T10:31:19;50784.03;;;-142.97;48.49
8451;BME280;4262;50.980;13.892;2023-01-29T10:33:53;50809.38;;;-142.97;48.13
8451;BME280;4262;50.980;13.892;2023-01-29T10:36:24;50789.88;;;-142.97;48.93
8451;BME280;4262;50.980;13.892;2023-01-29T10:38:54;50782.09;;;-142.97;48.58
8451;BME280;4262;50.980;13.892;2023-01-29T10:41:39;50782.09;;;-142.97;48.97
8451;BME280;4262;50.980;13.892;2023-01-29T10:44:18;50793.78;;;-142.97;48.90
8451;BME280;4262;50.980;13.892;2023-01-29T10:46:59;50776.25;;;-142.97;48.95
8451;BME280;4262;50.980;13.892;2023-01-29T10:49:45;50758.69;;;-142.97;48.85
8451;BME280;4262;50.980;13.892;2023-01-29T10:52:23;50774.28;;;-142.97;49.09
8451;BME280;4262;50.980;13.892;2023-01-29T10:55:02;50774.28;;;-142.97;48.92
8451;BME280;4262;50.980;13.892;2023-01-29T10:57:41;50762.59;;;-142.97;50.52
8451;BME280;4262;50.980;13.892;2023-01-29T11:00:18;50793.78;;;-142.97;50.25
8451;BME280;4262;50.980;13.892;2023-01-29T11:02:47;50782.09;;;-142.97;50.81
8451;BME280;4262;50.980;13.892;2023-01-29T11:05:19;50780.13;;;-142.97;49.70
8451;BME280;4262;50.980;13.892;2023-01-29T11:07:54;50756.75;;;-142.97;50.41
8451;BME280;4262;50.980;13.892;2023-01-29T11:10:23;50811.34;;;-142.97;50.55
8451;BME280;4262;50.980;13.892;2023-01-29T11:12:51;50780.13;;;-142.97;49.99
8451;BME280;4262;50.980;13.892;2023-01-29T11:15:21;50782.09;;;-142.97;50.06
8451;BME280;4262;50.980;13.892;2023-01-29T11:18:02;50787.94;;;-142.97;50.16
8451;BME280;4262;50.980;13.892;2023-01-29T11:20:32;50789.88;;;-142.97;50.57
8451;BME280;4262;50.980;13.892;2023-01-29T11:22:59;50754.78;;;-142.97;50.35
8451;BME280;4262;50.980;13.892;2023-01-29T11:25:28;50799.63;;;-142.97;50.69
8451;BME280;4262;50.980;13.892;2023-01-29T11:27:58;50785.97;;;-142.97;50.69
8451;BME280;4262;50.980;13.892;2023-01-29T11:30:28;50823.03;;;-142.97;50.80
8451;BME280;4262;50.980;13.892;2023-01-29T11:33:06;50764.53;;;-142.97;51.06
8451;BME280;4262;50.980;13.892;2023-01-29T11:35:35;50787.94;;;-142.97;51.00
8451;BME280;4262;50.980;13.892;2023-01-29T11:38:24;50758.69;;;-142.97;49.63
8451;BME280;4262;50.980;13.892;2023-01-29T11:40:52;50778.19;;;-142.97;49.60
8451;BME280;4262;50.980;13.892;2023-01-29T11:43:27;50793.78;;;-142.97;49.09
8451;BME280;4262;50.980;13.892;2023-01-29T11:46:00;50795.75;;;-142.97;49.37
8451;BME280;4262;50.980;13.892;2023-01-29T11:48:34;50774.28;;;-142.97;48.85
8451;BME280;4262;50.980;13.892;2023-01-29T11:51:09;50750.88;;;-142.97;48.41
8451;BME280;4262;50.980;13.892;2023-01-29T11:53:39;50776.25;;;-142.97;49.09
8451;BME280;4262;50.980;13.892;2023-01-29T11:56:18;50787.94;;;-142.97;48.15
8451;BME280;4262;50.980;13.892;2023-01-29T11:58:47;50803.53;;;-142.97;47.77
8451;BME280;4262;50.980;13.892;2023-01-29T12:01:17;50762.59;;;-142.97;47.99
8451;BME280;4262;50.980;13.892;2023-01-29T12:03:51;50785.97;;;-142.97;47.95
8451;BME280;4262;50.980;13.892;2023-01-29T12:06:22;50801.59;;;-142.97;48.06
8451;BME280;4262;50.980;13.892;2023-01-29T12:08:54;50784.03;;;-142.97;47.87
8451;BME280;4262;50.980;13.892;2023-01-29T12:11:29;50778.19;;;-142.97;47.94
8451;BME280;4262;50.980;13.892;2023-01-29T12:13:57;50826.94;;;-142.97;48.90
8451;BME280;4262;50.980;13.892;2023-01-29T12:16:29;50780.13;;;-142.97;48.99
8451;BME280;4262;50.980;13.892;2023-01-29T12:19:06;50819.13;;;-142.97;49.17
8451;BME280;4262;50.980;13.892;2023-01-29T12:21:43;50770.38;;;-142.97;49.53
8451;BME280;4262;50.980;13.892;2023-01-29T12:24:23;50815.22;;;-142.97;49.66
8451;BME280;4262;50.980;13.892;2023-01-29T12:27:01;50782.09;;;-142.97;49.79
8451;BME280;4262;50.980;13.892;2023-01-29T12:29:36;50766.50;;;-142.97;49.69
8451;BME280;4262;50.980;13.892;2023-01-29T12:32:13;50797.69;;;-142.97;49.58
8451;BME280;4262;50.980;13.892;2023-01-29T12:34:50;50807.44;;;-142.97;48.84
8451;BME280;4262;50.980;13.892;2023-01-29T12:37:22;50797.69;;;-142.97;48.73
8451;BME280;4262;50.980;13.892;2023-01-29T12:39:53;50811.34;;;-142.97;48.54
8451;BME280;4262;50.980;13.892;2023-01-29T12:42:21;50789.88;;;-142.97;48.20
8451;BME280;4262;50.980;13.892;2023-01-29T12:44:54;50772.34;;;-142.97;48.42
8451;BME280;4262;50.980;13.892;2023-01-29T12:47:27;50787.94;;;-142.97;47.42
8451;BME280;4262;50.980;13.892;2023-01-29T12:49:59;50817.19;;;-142.97;48.07
8451;BME280;4262;50.980;13.892;2023-01-29T12:52:37;50795.75;;;-142.97;48.22
8451;BME280;4262;50.980;13.892;2023-01-29T12:55:10;50774.28;;;-142.97;47.84
8451;BME280;4262;50.980;13.892;2023-01-29T12:57:42;50778.19;;;-142.97;47.50
8451;BME280;4262;50.980;13.892;2023-01-29T13:00:13;50747.00;;;-142.97;48.18
8451;BME280;4262;50.980;13.892;2023-01-29T13:02:47;50780.13;;;-142.97;49.26
8451;BME280;4262;50.980;13.892;2023-01-29T13:05:19;50752.84;;;-142.97;48.46
8451;BME280;4262;50.980;13.892;2023-01-29T13:07:53;50821.09;;;-142.97;47.89
8451;BME280;4262;50.980;13.892;2023-01-29T13:10:25;50784.03;;;-142.97;47.07
8451;BME280;4262;50.980;13.892;2023-01-29T13:12:57;50776.25;;;-142.97;47.43
8451;BME280;4262;50.980;13.892;2023-01-29T13:15:29;50813.28;;;-142.97;47.26
8451;BME280;4262;50.980;13.892;2023-01-29T13:18:13;50747.00;;;-142.97;47.14
8451;BME280;4262;50.980;13.892;2023-01-29T13:20:45;50815.22;;;-142.97;47.38
8451;BME280;4262;50.980;13.892;2023-01-29T13:23:19;50768.44;;;-142.97;46.56
8451;BME280;4262;50.980;13.892;2023-01-29T13:25:49;50787.94;;;-142.97;46.58
8451;BME280;4262;50.980;13.892;2023-01-29T13:28:17;50782.09;;;-142.97;46.66
8451;BME280;4262;50.980;13.892;2023-01-29T13:30:45;50776.25;;;-142.97;46.51
8451;BME280;4262;50.980;13.892;2023-01-29T13:33:21;50758.69;;;-142.97;46.53
8451;BME280;4262;50.980;13.892;2023-01-29T13:35:57;50823.03;;;-142.97;46.59
8451;BME280;4262;50.980;13.892;2023-01-29T13:38:28;50799.63;;;-142.97;46.32
8451;BME280;4262;50.980;13.892;2023-01-29T13:41:00;50787.94;;;-142.97;46.26
8451;BME280;4262;50.980;13.892;2023-01-29T13:43:33;50774.28;;;-142.97;46.86
8451;BME280;4262;50.980;13.892;2023-01-29T13:46:06;50774.28;;;-142.97;47.17
8451;BME280;4262;50.980;13.892;2023-01-29T13:48:40;50780.13;;;-142.97;47.30
8451;BME280;4262;50.980;13.892;2023-01-29T13:51:10;50787.94;;;-142.97;46.70
8451;BME280;4262;50.980;13.892;2023-01-29T13:53:51;50809.38;;;-142.97;46.37
8451;BME280;4262;50.980;13.892;2023-01-29T13:56:41;50776.25;;;-142.97;46.75
8451;BME280;4262;50.980;13.892;2023-01-29T13:59:21;50785.97;;;-142.97;46.99
8451;BME280;4262;50.980;13.892;2023-01-29T14:02:01;50774.28;;;-142.97;47.48
8451;BME280;4262;50.980;13.892;2023-01-29T14:04:30;50785.97;;;-142.97;48.20
8451;BME280;4262;50.980;13.892;2023-01-29T14:06:57;50787.94;;;-142.97;48.03
8451;BME280;4262;50.980;13.892;2023-01-29T14:12:48;50807.44;;;-142.97;47.82
8451;BME280;4262;50.980;13.892;2023-01-29T14:15:29;50774.28;;;-142.97;48.05
8451;BME280;4262;50.980;13.892;2023-01-29T14:18:18;50809.38;;;-142.97;48.20
8451;BME280;4262;50.980;13.892;2023-01-29T14:21:10;50789.88;;;-142.97;48.34
8451;BME280;4262;50.980;13.892;2023-01-29T14:23:47;50770.38;;;-142.97;48.19
8451;BME280;4262;50.980;13.892;2023-01-29T14:26:21;50797.69;;;-142.97;48.12
8451;BME280;4262;50.980;13.892;2023-01-29T14:28:57;50774.28;;;-142.97;47.92
8451;BME280;4262;50.980;13.892;2023-01-29T14:31:31;50789.88;;;-142.97;48.24
8451;BME280;4262;50.980;13.892;2023-01-29T14:34:05;50785.97;;;-142.97;48.37
8451;BME280;4262;50.980;13.892;2023-01-29T14:36:38;50770.38;;;-142.97;48.75
8451;BME280;4262;50.980;13.892;2023-01-29T14:39:06;50832.78;;;-142.97;48.30
8451;BME280;4262;50.980;13.892;2023-01-29T14:41:44;50784.03;;;-142.97;47.93
8451;BME280;4262;50.980;13.892;2023-01-29T14:47:18;50819.13;;;-142.97;47.61
8451;BME280;4262;50.980;13.892;2023-01-29T14:49:50;50817.19;;;-142.97;47.81
8451;BME280;4262;50.980;13.892;2023-01-29T14:52:18;50830.84;;;-142.97;47.61
8451;BME280;4262;50.980;13.892;2023-01-29T14:54:46;50770.38;;;-142.97;48.46
8451;BME280;4262;50.980;13.892;2023-01-29T14:57:15;50789.88;;;-142.97;48.64
8451;BME280;4262;50.980;13.892;2023-01-29T14:59:48;50805.50;;;-142.97;49.02
8451;BME280;4262;50.980;13.892;2023-01-29T15:02:19;50795.75;;;-142.97;48.83
8451;BME280;4262;50.980;13.892;2023-01-29T15:04:52;50801.59;;;-142.97;49.04
8451;BME280;4262;50.980;13.892;2023-01-29T15:07:26;50813.28;;;-142.97;49.36
8451;BME280;4262;50.980;13.892;2023-01-29T15:09:58;50768.44;;;-142.97;50.74
8451;BME280;4262;50.980;13.892;2023-01-29T15:12:28;50787.94;;;-142.97;50.51
8451;BME280;4262;50.980;13.892;2023-01-29T15:15:03;50828.88;;;-142.97;51.14
8451;BME280;4262;50.980;13.892;2023-01-29T15:17:36;50801.59;;;-142.97;51.26
8451;BME280;4262;50.980;13.892;2023-01-29T15:20:30;50823.03;;;-142.97;52.07
8451;BME280;4262;50.980;13.892;2023-01-29T15:22:58;50780.13;;;-142.97;52.22
8451;BME280;4262;50.980;13.892;2023-01-29T15:25:27;50801.59;;;-142.97;52.47
8451;BME280;4262;50.980;13.892;2023-01-29T15:27:58;50793.78;;;-142.97;51.92
8451;BME280;4262;50.980;13.892;2023-01-29T15:30:30;50745.03;;;-142.97;52.37
8451;BME280;4262;50.980;13.892;2023-01-29T15:33:01;50791.84;;;-142.97;52.57
8451;BME280;4262;50.980;13.892;2023-01-29T15:35:30;50793.78;;;-142.97;52.15
8451;BME280;4262;50.980;13.892;2023-01-29T15:38:02;50793.78;;;-142.97;52.09
8451;BME280;4262;50.980;13.892;2023-01-29T15:40:29;50799.63;;;-142.97;52.45
8451;BME280;4262;50.980;13.892;2023-01-29T15:42:56;50778.19;;;-142.97;52.21
8451;BME280;4262;50.980;13.892;2023-01-29T15:45:26;50826.94;;;-142.97;52.43
8451;BME280;4262;50.980;13.892;2023-01-29T15:48:04;50770.38;;;-142.97;52.16
8451;BME280;4262;50.980;13.892;2023-01-29T15:50:34;50826.94;;;-142.97;52.67
8451;BME280;4262;50.980;13.892;2023-01-29T15:53:05;50826.94;;;-142.97;52.91
8451;BME280;4262;50.980;13.892;2023-01-29T15:55:34;50787.94;;;-142.97;52.79
8451;BME280;4262;50.980;13.892;2023-01-29T15:58:01;50801.59;;;-142.97;53.10
8451;BME280;4262;50.980;13.892;2023-01-29T16:00:29;50826.94;;;-142.97;53.04
8451;BME280;4262;50.980;13.892;2023-01-29T16:02:58;50838.63;;;-142.97;52.63
8451;BME280;4262;50.980;13.892;2023-01-29T16:05:29;50770.38;;;-142.97;52.36
8451;BME280;4262;50.980;13.892;2023-01-29T16:07:58;50793.78;;;-142.97;52.67
8451;BME280;4262;50.980;13.892;2023-01-29T16:10:28;50760.63;;;-142.97;52.87
8451;BME280;4262;50.980;13.892;2023-01-29T16:12:56;50795.75;;;-142.97;52.83
8451;BME280;4262;50.980;13.892;2023-01-29T16:15:28;50770.38;;;-142.97;53.11
8451;BME280;4262;50.980;13.892;2023-01-29T16:17:57;50784.03;;;-142.97;53.49
8451;BME280;4262;50.980;13.892;2023-01-29T16:20:35;50784.03;;;-142.97;53.92
8451;BME280;4262;50.980;13.892;2023-01-29T16:23:04;50823.03;;;-142.97;54.12
8451;BME280;4262;50.980;13.892;2023-01-29T16:25:33;50809.38;;;-142.97;54.60
8451;BME280;4262;50.980;13.892;2023-01-29T16:28:03;50770.38;;;-142.97;54.60
8451;BME280;4262;50.980;13.892;2023-01-29T16:30:30;50803.53;;;-142.97;54.84
8451;BME280;4262;50.980;13.892;2023-01-29T16:33:02;50784.03;;;-142.97;55.19
8451;BME280;4262;50.980;13.892;2023-01-29T16:35:33;50805.50;;;-142.97;55.57
8451;BME280;4262;50.980;13.892;2023-01-29T16:38:03;50795.75;;;-142.97;55.64
8451;BME280;4262;50.980;13.892;2023-01-29T16:40:32;50795.75;;;-142.97;55.84
8451;BME280;4262;50.980;13.892;2023-01-29T16:43:44;50801.59;;;-142.97;56.20
8451;BME280;4262;50.980;13.892;2023-01-29T16:46:24;50797.69;;;-142.97;55.91
8451;BME280;4262;50.980;13.892;2023-01-29T16:48:52;50821.09;;;-142.97;55.62
8451;BME280;4262;50.980;13.892;2023-01-29T16:51:28;50823.03;;;-142.97;55.69
8451;BME280;4262;50.980;13.892;2023-01-29T16:53:57;50782.09;;;-142.97;55.95
8451;BME280;4262;50.980;13.892;2023-01-29T16:56:27;50758.69;;;-142.97;55.30
8451;BME280;4262;50.980;13.892;2023-01-29T16:58:56;50797.69;;;-142.97;55.38
8451;BME280;4262;50.980;13.892;2023-01-29T17:01:25;50805.50;;;-142.97;55.71
8451;BME280;4262;50.980;13.892;2023-01-29T17:03:57;50758.69;;;-142.97;55.49
8451;BME280;4262;50.980;13.892;2023-01-29T17:06:27;50784.03;;;-142.97;55.18
8451;BME280;4262;50.980;13.892;2023-01-29T17:08:56;50768.44;;;-142.97;54.87
8451;BME280;4262;50.980;13.892;2023-01-29T17:11:29;50793.78;;;-142.97;55.62
8451;BME280;4262;50.980;13.892;2023-01-29T17:13:58;50815.22;;;-142.97;55.11
8451;BME280;4262;50.980;13.892;2023-01-29T17:16:27;50797.69;;;-142.97;55.59
8451;BME280;4262;50.980;13.892;2023-01-29T17:18:56;50828.88;;;-142.97;55.35
8451;BME280;4262;50.980;13.892;2023-01-29T17:21:22;50778.19;;;-142.97;55.61
8451;BME280;4262;50.980;13.892;2023-01-29T17:23:51;50797.69;;;-142.97;55.16
8451;BME280;4262;50.980;13.892;2023-01-29T17:26:20;50801.59;;;-142.97;55.14
8451;BME280;4262;50.980;13.892;2023-01-29T17:28:48;50811.34;;;-142.97;55.22
8451;BME280;4262;50.980;13.892;2023-01-29T17:31:16;50801.59;;;-142.97;55.46
8451;BME280;4262;50.980;13.892;2023-01-29T17:33:43;50778.19;;;-142.97;55.21
8451;BME280;4262;50.980;13.892;2023-01-29T17:36:11;50805.50;;;-142.97;55.55
8451;BME280;4262;50.980;13.892;2023-01-29T17:38:39;50801.59;;;-142.97;55.71
8451;BME280;4262;50.980;13.892;2023-01-29T17:41:11;50778.19;;;-142.97;55.33
8451;BME280;4262;50.980;13.892;2023-01-29T17:43:39;50789.88;;;-142.97;55.48
8451;BME280;4262;50.980;13.892;2023-01-29T17:46:11;50805.50;;;-142.97;55.21
8451;BME280;4262;50.980;13.892;2023-01-29T17:48:41;50787.94;;;-142.97;55.73
8451;BME280;4262;50.980;13.892;2023-01-29T17:51:10;50801.59;;;-142.97;55.51
8451;BME280;4262;50.980;13.892;2023-01-29T17:53:37;50809.38;;;-142.97;55.70
8451;BME280;4262;50.980;13.892;2023-01-29T17:56:04;50768.44;;;-142.97;55.45
8451;BME280;4262;50.980;13.892;2023-01-29T17:58:32;50793.78;;;-142.97;55.72
8451;BME280;4262;50.980;13.892;2023-01-29T18:00:59;50768.44;;;-142.97;55.57
8451;BME280;4262;50.980;13.892;2023-01-29T18:03:25;50791.84;;;-142.97;55.55
8451;BME280;4262;50.980;13.892;2023-01-29T18:05:52;50797.69;;;-142.97;55.42
8451;BME280;4262;50.980;13.892;2023-01-29T18:08:23;50780.13;;;-142.97;55.63
8451;BME280;4262;50.980;13.892;2023-01-29T18:10:50;50815.22;;;-142.97;55.82
8451;BME280;4262;50.980;13.892;2023-01-29T18:13:16;50823.03;;;-142.97;55.52
8451;BME280;4262;50.980;13.892;2023-01-29T18:15:44;50817.19;;;-142.97;55.54
8451;BME280;4262;50.980;13.892;2023-01-29T18:18:14;50801.59;;;-142.97;55.16
8451;BME280;4262;50.980;13.892;2023-01-29T18:20:43;50780.13;;;-142.97;55.50
8451;BME280;4262;50.980;13.892;2023-01-29T18:23:11;50815.22;;;-142.97;55.49
8451;BME280;4262;50.980;13.892;2023-01-29T18:25:38;50809.38;;;-142.97;55.67
8451;BME280;4262;50.980;13.892;2023-01-29T18:28:05;50793.78;;;-142.97;55.32
8451;BME280;4262;50.980;13.892;2023-01-29T18:30:33;50797.69;;;-142.97;55.04
8451;BME280;4262;50.980;13.892;2023-01-29T18:33:02;50778.19;;;-142.97;55.42
8451;BME280;4262;50.980;13.892;2023-01-29T18:35:29;50764.53;;;-142.97;55.18
8451;BME280;4262;50.980;13.892;2023-01-29T18:37:56;50789.88;;;-142.97;54.43
8451;BME280;4262;50.980;13.892;2023-01-29T18:40:22;50782.09;;;-142.97;54.00
8451;BME280;4262;50.980;13.892;2023-01-29T18:42:50;50782.09;;;-142.97;54.71
8451;BME280;4262;50.980;13.892;2023-01-29T18:45:18;50782.09;;;-142.97;54.82
8451;BME280;4262;50.980;13.892;2023-01-29T18:47:46;50797.69;;;-142.97;53.76
8451;BME280;4262;50.980;13.892;2023-01-29T18:50:15;50793.78;;;-142.97;53.60
8451;BME280;4262;50.980;13.892;2023-01-29T18:52:42;50764.53;;;-142.97;53.66
8451;BME280;4262;50.980;13.892;2023-01-29T18:55:09;50785.97;;;-142.97;53.68
8451;BME280;4262;50.980;13.892;2023-01-29T18:57:37;50758.69;;;-142.97;53.74
8451;BME280;4262;50.980;13.892;2023-01-29T19:00:05;50793.78;;;-142.97;53.83
8451;BME280;4262;50.980;13.892;2023-01-29T19:02:32;50797.69;;;-142.97;54.20
8451;BME280;4262;50.980;13.892;2023-01-29T19:04:59;50805.50;;;-142.97;54.18
8451;BME280;4262;50.980;13.892;2023-01-29T19:07:28;50768.44;;;-142.97;54.38
8451;BME280;4262;50.980;13.892;2023-01-29T19:09:55;50791.84;;;-142.97;54.97
8451;BME280;4262;50.980;13.892;2023-01-29T19:12:22;50762.59;;;-142.97;55.27
8451;BME280;4262;50.980;13.892;2023-01-29T19:14:49;50778.19;;;-142.97;54.99
8451;BME280;4262;50.980;13.892;2023-01-29T19:17:16;50782.09;;;-142.97;55.33
8451;BME280;4262;50.980;13.892;2023-01-29T19:19:42;50789.88;;;-142.97;54.73